Terminal Aerodrome Forecast
Issued by NWS Omaha/Valley, NE

Home | Current Version | Previous Version | Text Only | Print | Product List | Glossary Off
Versions: 1 2 3 4 5 6 7 8 9 10 11 12 13 14 15

000
FTUS43 KOAX 272320
TAFOFK
TAF
KOFK 272320Z 2800/2824 16009KT P6SM SCT070 SCT250
     FM280600 17006KT P6SM SCT200
      TEMPO 2810/2813 5SM BR
     FM281500 17009KT P6SM SCT200
     FM281900 18011KT P6SM BKN100=

USA.gov is the U.S. government's official web portal to all federal, state and local government web resources and services.